sensor_id;sensor_type;location;lat;lon;timestamp;pressure;altitude;pressure_sealevel;temperature;humidity
7832;BME280;3961;42.058;25.586;2023-05-12T00:01:27;63183.91;;;8.63;100.00
7832;BME280;3961;42.058;25.586;2023-05-12T00:03:53;63200.97;;;8.75;100.00
7832;BME280;3961;42.058;25.586;2023-05-12T00:06:19;63198.09;;;8.73;100.00
7832;BME280;3961;42.058;25.586;2023-05-12T00:08:45;63200.63;;;8.77;100.00
7832;BME280;3961;42.058;25.586;2023-05-12T00:11:10;63207.19;;;8.86;100.00
7832;BME280;3961;42.058;25.586;2023-05-12T00:13:36;63211.91;;;8.85;100.00
7832;BME280;3961;42.058;25.586;2023-05-12T00:16:02;63201.31;;;8.73;100.00
7832;BME280;3961;42.058;25.586;2023-05-12T00:18:27;63209.28;;;8.85;100.00
7832;BME280;3961;42.058;25.586;2023-05-12T00:20:53;63213.66;;;8.87;100.00
7832;BME280;3961;42.058;25.586;2023-05-12T00:23:19;63206.97;;;8.83;100.00
7832;BME280;3961;42.058;25.586;2023-05-12T00:25:45;63219.06;;;8.94;100.00
7832;BME280;3961;42.058;25.586;2023-05-12T00:28:11;63233.59;;;9.02;100.00
7832;BME280;3961;42.058;25.586;2023-05-12T00:30:36;63224.84;;;8.99;100.00
7832;BME280;3961;42.058;25.586;2023-05-12T00:33:02;63214.47;;;8.90;100.00
7832;BME280;3961;42.058;25.586;2023-05-12T00:35:28;63219.66;;;8.94;100.00
7832;BME280;3961;42.058;25.586;2023-05-12T00:37:53;63212.50;;;8.86;100.00
7832;BME280;3961;42.058;25.586;2023-05-12T00:40:19;63186.56;;;8.63;100.00
7832;BME280;3961;42.058;25.586;2023-05-12T00:42:44;63213.31;;;8.89;100.00
7832;BME280;3961;42.058;25.586;2023-05-12T00:45:10;63205.81;;;8.82;100.00
7832;BME280;3961;42.058;25.586;2023-05-12T00:47:36;63164.09;;;8.43;100.00
7832;BME280;3961;42.058;25.586;2023-05-12T00:50:03;63218.84;;;8.91;100.00
7832;BME280;3961;42.058;25.586;2023-05-12T00:52:29;63234.75;;;9.03;100.00
7832;BME280;3961;42.058;25.586;2023-05-12T00:54:56;63244.66;;;9.19;100.00
7832;BME280;3961;42.058;25.586;2023-05-12T00:57:24;63236.97;;;9.09;100.00
7832;BME280;3961;42.058;25.586;2023-05-12T00:59:50;63252.50;;;9.23;100.00
7832;BME280;3961;42.058;25.586;2023-05-12T01:02:16;63271.31;;;9.37;100.00
7832;BME280;3961;42.058;25.586;2023-05-12T01:04:41;63276.16;;;9.44;100.00
7832;BME280;3961;42.058;25.586;2023-05-12T01:07:24;63260.25;;;9.32;100.00
7832;BME280;3961;42.058;25.586;2023-05-12T01:09:54;63256.31;;;9.24;100.00
7832;BME280;3961;42.058;25.586;2023-05-12T01:12:21;63269.25;;;9.38;100.00
7832;BME280;3961;42.058;25.586;2023-05-12T01:14:47;63228.06;;;8.99;100.00
7832;BME280;3961;42.058;25.586;2023-05-12T01:17:14;63247.06;;;9.16;100.00
7832;BME280;3961;42.058;25.586;2023-05-12T01:19:48;63284.00;;;9.49;100.00
7832;BME280;3961;42.058;25.586;2023-05-12T01:22:17;63275.22;;;9.46;100.00
7832;BME280;3961;42.058;25.586;2023-05-12T01:24:49;63289.53;;;9.51;100.00
7832;BME280;3961;42.058;25.586;2023-05-12T01:27:16;63264.97;;;9.32;100.00
7832;BME280;3961;42.058;25.586;2023-05-12T01:29:46;63245.94;;;9.15;100.00
7832;BME280;3961;42.058;25.586;2023-05-12T01:32:12;63211.00;;;8.87;100.00
7832;BME280;3961;42.058;25.586;2023-05-12T01:34:38;63236.97;;;9.09;100.00
7832;BME280;3961;42.058;25.586;2023-05-12T01:37:07;63235.56;;;9.06;100.00
7832;BME280;3961;42.058;25.586;2023-05-12T01:39:34;63243.63;;;9.13;100.00
7832;BME280;3961;42.058;25.586;2023-05-12T01:41:59;63228.53;;;9.04;100.00
7832;BME280;3961;42.058;25.586;2023-05-12T01:44:25;63245.00;;;9.17;100.00
7832;BME280;3961;42.058;25.586;2023-05-12T01:46:50;63230.13;;;8.99;100.00
7832;BME280;3961;42.058;25.586;2023-05-12T01:49:16;63248.00;;;9.15;100.00
7832;BME280;3961;42.058;25.586;2023-05-12T01:51:41;63251.47;;;9.18;100.00
7832;BME280;3961;42.058;25.586;2023-05-12T01:54:07;63259.19;;;9.27;100.00
7832;BME280;3961;42.058;25.586;2023-05-12T01:56:32;63271.66;;;9.35;100.00
7832;BME280;3961;42.058;25.586;2023-05-12T01:58:58;63263.72;;;9.35;100.00
7832;BME280;3961;42.058;25.586;2023-05-12T02:01:23;63258.63;;;9.26;100.00
7832;BME280;3961;42.058;25.586;2023-05-12T02:03:53;63264.72;;;9.29;100.00
7832;BME280;3961;42.058;25.586;2023-05-12T02:06:19;63254.34;;;9.20;100.00
7832;BME280;3961;42.058;25.586;2023-05-12T02:08:45;63256.56;;;9.27;100.00
7832;BME280;3961;42.058;25.586;2023-05-12T02:11:11;63247.91;;;9.19;100.00
7832;BME280;3961;42.058;25.586;2023-05-12T02:13:36;63246.84;;;9.14;100.00
7832;BME280;3961;42.058;25.586;2023-05-12T02:16:02;63250.53;;;9.19;100.00
7832;BME280;3961;42.058;25.586;2023-05-12T02:18:27;63224.84;;;8.99;100.00
7832;BME280;3961;42.058;25.586;2023-05-12T02:20:53;63248.22;;;9.17;100.00
7832;BME280;3961;42.058;25.586;2023-05-12T02:23:18;63244.78;;;9.14;100.00
7832;BME280;3961;42.058;25.586;2023-05-12T02:25:44;63246.50;;;9.16;100.00
7832;BME280;3961;42.058;25.586;2023-05-12T02:28:10;63246.59;;;9.11;100.00
7832;BME280;3961;42.058;25.586;2023-05-12T02:30:36;63236.13;;;9.06;100.00
7832;BME280;3961;42.058;25.586;2023-05-12T02:33:02;63220.22;;;8.95;100.00
7832;BME280;3961;42.058;25.586;2023-05-12T02:35:30;63212.50;;;8.86;100.00
7832;BME280;3961;42.058;25.586;2023-05-12T02:37:55;63237.06;;;9.05;100.00
7832;BME280;3961;42.058;25.586;2023-05-12T02:40:21;63243.63;;;9.13;100.00
7832;BME280;3961;42.058;25.586;2023-05-12T02:42:46;63224.84;;;8.99;100.00
7832;BME280;3961;42.058;25.586;2023-05-12T02:45:12;63244.53;;;9.12;100.00
7832;BME280;3961;42.058;25.586;2023-05-12T02:47:37;63243.84;;;9.16;100.00
7832;BME280;3961;42.058;25.586;2023-05-12T02:50:05;63256.66;;;9.22;100.00
7832;BME280;3961;42.058;25.586;2023-05-12T02:52:30;63197.19;;;8.74;100.00
7832;BME280;3961;42.058;25.586;2023-05-12T02:54:56;63241.88;;;9.12;100.00
7832;BME280;3961;42.058;25.586;2023-05-12T02:57:21;63238.44;;;9.08;100.00
7832;BME280;3961;42.058;25.586;2023-05-12T02:59:47;63223.69;;;8.98;100.00
7832;BME280;3961;42.058;25.586;2023-05-12T03:02:12;63222.88;;;8.95;100.00
7832;BME280;3961;42.058;25.586;2023-05-12T03:04:38;63238.09;;;9.10;100.00
7832;BME280;3961;42.058;25.586;2023-05-12T03:07:04;63232.91;;;9.06;100.00
7832;BME280;3961;42.058;25.586;2023-05-12T03:09:29;63229.22;;;9.00;100.00
7832;BME280;3961;42.058;25.586;2023-05-12T03:11:55;63240.50;;;9.08;100.00
7832;BME280;3961;42.058;25.586;2023-05-12T03:14:20;63238.44;;;9.08;100.00
7832;BME280;3961;42.058;25.586;2023-05-12T03:16:46;63233.50;;;9.06;100.00
7832;BME280;3961;42.058;25.586;2023-05-12T03:19:12;63224.50;;;9.01;100.00
7832;BME280;3961;42.058;25.586;2023-05-12T03:21:37;63230.94;;;9.02;100.00
7832;BME280;3961;42.058;25.586;2023-05-12T03:24:03;63226.34;;;8.98;100.00
7832;BME280;3961;42.058;25.586;2023-05-12T03:26:30;63223.22;;;8.93;100.00
7832;BME280;3961;42.058;25.586;2023-05-12T03:28:55;63217.91;;;8.93;100.00
7832;BME280;3961;42.058;25.586;2023-05-12T03:31:20;63231.75;;;9.05;100.00
7832;BME280;3961;42.058;25.586;2023-05-12T03:33:46;63231.75;;;9.05;100.00
7832;BME280;3961;42.058;25.586;2023-05-12T03:36:11;63236.13;;;9.06;100.00
7832;BME280;3961;42.058;25.586;2023-05-12T03:38:37;63242.13;;;9.14;100.00
7832;BME280;3961;42.058;25.586;2023-05-12T03:41:06;63230.84;;;9.06;100.00
7832;BME280;3961;42.058;25.586;2023-05-12T03:43:33;63236.13;;;9.06;100.00
7832;BME280;3961;42.058;25.586;2023-05-12T03:45:59;63245.09;;;9.12;100.00
7832;BME280;3961;42.058;25.586;2023-05-12T03:48:24;63221.97;;;8.96;100.00
7832;BME280;3961;42.058;25.586;2023-05-12T03:50:50;63221.97;;;8.96;100.00
7832;BME280;3961;42.058;25.586;2023-05-12T03:53:16;63245.94;;;9.15;100.00
7832;BME280;3961;42.058;25.586;2023-05-12T03:55:41;63231.53;;;9.02;100.00
7832;BME280;3961;42.058;25.586;2023-05-12T03:58:07;63243.63;;;9.13;100.00
7832;BME280;3961;42.058;25.586;2023-05-12T04:00:33;63260.94;;;9.28;100.00
7832;BME280;3961;42.058;25.586;2023-05-12T04:02:58;63252.03;;;9.18;100.00
7832;BME280;3961;42.058;25.586;2023-05-12T04:05:24;63244.09;;;9.18;100.00
7832;BME280;3961;42.058;25.586;2023-05-12T04:07:50;63251.94;;;9.23;100.00
7832;BME280;3961;42.058;25.586;2023-05-12T04:10:16;63237.50;;;9.10;100.00
7832;BME280;3961;42.058;25.586;2023-05-12T04:12:41;63256.56;;;9.27;100.00
7832;BME280;3961;42.058;25.586;2023-05-12T04:15:07;63279.16;;;9.42;100.00
7832;BME280;3961;42.058;25.586;2023-05-12T04:17:33;63270.06;;;9.41;100.00
7832;BME280;3961;42.058;25.586;2023-05-12T04:19:59;63277.63;;;9.43;100.00
7832;BME280;3961;42.058;25.586;2023-05-12T04:22:25;63284.81;;;9.52;100.00
7832;BME280;3961;42.058;25.586;2023-05-12T04:24:50;63288.84;;;9.55;100.00
7832;BME280;3961;42.058;25.586;2023-05-12T04:27:16;63324.13;;;9.82;100.00
7832;BME280;3961;42.058;25.586;2023-05-12T04:29:41;63318.25;;;9.81;100.00
7832;BME280;3961;42.058;25.586;2023-05-12T04:32:07;63351.50;;;10.08;100.00
7832;BME280;3961;42.058;25.586;2023-05-12T04:34:33;63357.03;;;10.10;100.00
7832;BME280;3961;42.058;25.586;2023-05-12T04:36:59;63365.63;;;10.23;100.00
7832;BME280;3961;42.058;25.586;2023-05-12T04:39:24;63398.84;;;10.50;100.00
7832;BME280;3961;42.058;25.586;2023-05-12T04:41:50;63428.31;;;10.75;100.00
7832;BME280;3961;42.058;25.586;2023-05-12T04:44:15;63449.94;;;10.97;100.00
7832;BME280;3961;42.058;25.586;2023-05-12T04:46:41;63498.47;;;11.39;100.00
7832;BME280;3961;42.058;25.586;2023-05-12T04:49:07;63577.69;;;12.09;100.00
7832;BME280;3961;42.058;25.586;2023-05-12T04:51:33;63659.88;;;12.81;100.00
7832;BME280;3961;42.058;25.586;2023-05-12T04:53:58;63695.56;;;13.10;100.00
7832;BME280;3961;42.058;25.586;2023-05-12T04:56:24;63702.28;;;13.13;100.00
7832;BME280;3961;42.058;25.586;2023-05-12T04:58:49;63718.97;;;13.33;100.00
7832;BME280;3961;42.058;25.586;2023-05-12T05:01:15;63715.03;;;13.25;100.00
7832;BME280;3961;42.058;25.586;2023-05-12T05:03:40;63709.59;;;13.18;100.00
7832;BME280;3961;42.058;25.586;2023-05-12T05:06:06;63759.66;;;13.64;100.00
7832;BME280;3961;42.058;25.586;2023-05-12T05:08:32;63888.97;;;14.77;97.90
7832;BME280;3961;42.058;25.586;2023-05-12T05:10:57;64036.13;;;16.08;90.05
7832;BME280;3961;42.058;25.586;2023-05-12T05:13:23;64054.38;;;16.26;85.51
7832;BME280;3961;42.058;25.586;2023-05-12T05:15:52;64012.31;;;15.87;87.20
7832;BME280;3961;42.058;25.586;2023-05-12T05:18:18;64014.06;;;15.89;88.41
7832;BME280;3961;42.058;25.586;2023-05-12T05:20:43;64017.19;;;15.94;88.76
7832;BME280;3961;42.058;25.586;2023-05-12T05:23:10;64074.25;;;16.39;84.82
7832;BME280;3961;42.058;25.586;2023-05-12T05:25:36;64129.53;;;16.87;84.52
7832;BME280;3961;42.058;25.586;2023-05-12T05:28:02;64192.94;;;17.42;80.37
7832;BME280;3961;42.058;25.586;2023-05-12T05:30:27;64184.06;;;17.39;79.11
7832;BME280;3961;42.058;25.586;2023-05-12T05:32:53;64154.19;;;17.11;78.49
7832;BME280;3961;42.058;25.586;2023-05-12T05:35:18;64132.78;;;16.88;79.17
7832;BME280;3961;42.058;25.586;2023-05-12T05:37:44;64081.47;;;16.48;79.44
7832;BME280;3961;42.058;25.586;2023-05-12T05:40:10;64067.88;;;16.33;81.79
7832;BME280;3961;42.058;25.586;2023-05-12T05:42:35;64048.34;;;16.19;81.78
7832;BME280;3961;42.058;25.586;2023-05-12T05:45:01;64030.91;;;16.03;79.53
7832;BME280;3961;42.058;25.586;2023-05-12T05:47:26;64021.25;;;15.97;78.04
7832;BME280;3961;42.058;25.586;2023-05-12T05:49:53;63915.91;;;15.03;79.08
7832;BME280;3961;42.058;25.586;2023-05-12T05:52:19;63931.59;;;15.17;80.98
7832;BME280;3961;42.058;25.586;2023-05-12T05:54:45;63929.03;;;15.12;80.14
7832;BME280;3961;42.058;25.586;2023-05-12T05:57:10;63848.03;;;14.43;82.12
7832;BME280;3961;42.058;25.586;2023-05-12T05:59:36;63811.13;;;14.13;84.50
7832;BME280;3961;42.058;25.586;2023-05-12T06:02:01;63860.22;;;14.54;84.25
7832;BME280;3961;42.058;25.586;2023-05-12T06:04:28;63812.28;;;14.15;86.35
7832;BME280;3961;42.058;25.586;2023-05-12T06:06:53;63795.81;;;13.98;88.07
7832;BME280;3961;42.058;25.586;2023-05-12T06:09:19;63772.06;;;13.77;88.34
7832;BME280;3961;42.058;25.586;2023-05-12T06:11:44;63761.38;;;13.65;90.61
7832;BME280;3961;42.058;25.586;2023-05-12T06:14:09;63771.22;;;13.74;89.93
7832;BME280;3961;42.058;25.586;2023-05-12T06:16:36;63769.72;;;13.75;90.48
7832;BME280;3961;42.058;25.586;2023-05-12T06:19:01;63758.50;;;13.63;89.85
7832;BME280;3961;42.058;25.586;2023-05-12T06:21:27;63766.25;;;13.72;89.79
7832;BME280;3961;42.058;25.586;2023-05-12T06:23:52;63752.69;;;13.58;91.80
7832;BME280;3961;42.058;25.586;2023-05-12T06:26:20;63800.69;;;14.04;88.50
7832;BME280;3961;42.058;25.586;2023-05-12T06:28:46;63719.91;;;13.31;90.32
7832;BME280;3961;42.058;25.586;2023-05-12T06:31:12;63735.31;;;13.42;90.92
7832;BME280;3961;42.058;25.586;2023-05-12T06:33:37;63756.63;;;13.66;90.80
7832;BME280;3961;42.058;25.586;2023-05-12T06:36:03;63782.13;;;13.88;90.19
7832;BME280;3961;42.058;25.586;2023-05-12T06:38:29;63807.41;;;14.08;88.41
7832;BME280;3961;42.058;25.586;2023-05-12T06:40:54;63809.72;;;14.10;87.13
7832;BME280;3961;42.058;25.586;2023-05-12T06:55:40;63812.63;;;14.12;88.12
7832;BME280;3961;42.058;25.586;2023-05-12T06:58:08;63797.19;;;14.01;88.30
7832;BME280;3961;42.058;25.586;2023-05-12T07:00:33;63800.34;;;14.06;88.79
7832;BME280;3961;42.058;25.586;2023-05-12T07:02:59;63804.75;;;14.08;88.86
